Hilt, California
Current Conditions -  °F | °C
As of 12:53 AM on Friday 31 Oct 2014 (Local Time) from KSIY Reporting Station
Clear Clear  
Wind Chill: 58°   Ceiling: Unl
Heat Index: 58°   Visibility: 10mi
Dew Point: 43°   Wind: 20mph
Humidity: 58%   Direction: 170°S
Pressure: 29.79"   Gusts: 26mph
Location:  41.9064°N, 122.501°W
Report Text: KSIY 310753Z AUTO 17017G23KT 10SM CLR 14/06 A2979 RMK AO2 SLP086 T01440061 402170039
Loading
Personal Weather Stations






























Interactive Weather Map
Tropical Storm Tracking
New forecast layout! Learn more

10-Day Weather Forecast

Advertisements
Track Severe Weather on mobile